Avisos AEMET Campiña SevillanaSin Avisos    + INFO

Informes METAR cercanos

 

LEZL - Sevilla (civ/Mil, Spain
Distancia de la estación: O 16km
Actualización: 28/09/2022 13:30
Despejado
Despejado
 Viento del SO
Viento: SO 17 km/h
Temperatura: 24°C
Rocío: 10°C
Humedad: 41%
Barómetro: 1017 hPa
Resumen: Despejado
Visibilidad: más de 10 km
2022/09/28 11:30 LEZL 281130Z 23009KT 190V260 CAVOK 24/10 Q1017 NOSIG
LEMO - Moron (sp-Usafb), Spain
Distancia de la estación: SSE 27km
Actualización: 28/09/2022 13:30
Despejado
Despejado
 Viento del OSO
Viento: OSO 19 km/h
Temperatura: 25°C
Rocío: 9°C
Humedad: 36%
Barómetro: 1017 hPa
Resumen: Despejado
Visibilidad: más de 10 km
2022/09/28 11:30 LEMO 281130Z 24010KT 210V290 CAVOK 25/09 Q1017 NOSIG
 
LEJR - Jerez (civ/Mil), Spain
Distancia de la estación: SSO 78km
Actualización: 28/09/2022 13:30
Poco Nuboso
Poco Nuboso
 Viento del SSO
Viento: SSO 17 km/h
Temperatura: 25°C
Rocío: 12°C
Humedad: 44%
Barómetro: 1017 hPa
Nubes: Poco Nuboso
Visibilidad: 10 km
Detalles nubes: Poco Nuboso 610 m
2022/09/28 11:30 LEJR 281130Z 21009KT 160V250 9999 FEW020 25/12 Q1017